createdAt,value
2023-05-20T00:00:46.534Z,7.63
2023-05-20T00:03:32.121Z,6.80
2023-05-20T00:06:17.304Z,6.20
2023-05-20T00:09:02.862Z,8.70
2023-05-20T00:11:48.411Z,6.93
2023-05-20T00:14:33.538Z,6.40
2023-05-20T00:17:18.920Z,8.13
2023-05-20T00:20:05.544Z,6.17
2023-05-20T00:22:50.978Z,7.13
2023-05-20T00:25:36.419Z,7.30
2023-05-20T00:28:23.847Z,7.53
2023-05-20T00:31:08.951Z,6.60
2023-05-20T00:33:54.894Z,7.53
2023-05-20T00:36:40.032Z,7.13
2023-05-20T00:39:25.419Z,7.97
2023-05-20T00:42:11.281Z,7.10
2023-05-20T00:44:56.733Z,7.97
2023-05-20T00:47:43.029Z,7.63
2023-05-20T00:50:28.709Z,9.03
2023-05-20T00:53:16.096Z,8.23
2023-05-20T00:56:02.002Z,9.07
2023-05-20T00:58:47.694Z,7.40
2023-05-20T01:01:33.247Z,7.60
2023-05-20T01:04:18.806Z,9.57
2023-05-20T01:07:06.604Z,7.60
2023-05-20T01:09:54.239Z,7.73
2023-05-20T01:12:46.117Z,7.27
2023-05-20T01:15:31.840Z,7.13
2023-05-20T01:18:20.798Z,7.53
2023-05-20T01:21:10.764Z,8.37
2023-05-20T01:23:56.293Z,8.47
2023-05-20T01:26:41.603Z,8.07
2023-05-20T01:29:27.964Z,8.23
2023-05-20T01:32:28.437Z,7.27
2023-05-20T01:35:16.121Z,8.43
2023-05-20T01:38:03.240Z,8.17
2023-05-20T01:40:49.869Z,9.07
2023-05-20T01:43:35.261Z,7.23
2023-05-20T01:46:20.645Z,7.50
2023-05-20T01:49:07.423Z,7.73
2023-05-20T01:51:52.717Z,8.07
2023-05-20T01:54:38.095Z,7.57
2023-05-20T01:57:24.183Z,8.17
2023-05-20T02:00:11.264Z,7.03
2023-05-20T02:02:59.526Z,7.63
2023-05-20T02:05:44.738Z,8.80
2023-05-20T02:08:29.972Z,7.50
2023-05-20T02:11:15.483Z,9.30
2023-05-20T02:14:00.963Z,10.23
2023-05-20T02:16:47.420Z,8.40
2023-05-20T02:19:32.649Z,8.70
2023-05-20T02:22:18.204Z,9.20
2023-05-20T02:25:04.076Z,8.43
2023-05-20T02:27:49.576Z,8.00
2023-05-20T02:30:34.901Z,8.77
2023-05-20T02:33:21.541Z,8.47
2023-05-20T02:36:07.627Z,8.23
2023-05-20T02:38:56.745Z,8.20
2023-05-20T02:41:41.947Z,8.47
2023-05-20T02:44:28.149Z,7.80
2023-05-20T02:47:14.222Z,8.60
2023-05-20T02:49:59.872Z,11.07
2023-05-20T02:52:45.621Z,9.50
2023-05-20T02:55:35.154Z,9.10
2023-05-20T02:58:26.245Z,9.10
2023-05-20T03:01:11.752Z,9.13
2023-05-20T03:03:57.012Z,7.97
2023-05-20T03:06:44.511Z,8.60
2023-05-20T03:09:30.023Z,12.17
2023-05-20T03:12:15.844Z,8.30
2023-05-20T03:15:01.385Z,10.27
2023-05-20T03:17:47.334Z,9.17
2023-05-20T03:20:33.268Z,8.73
2023-05-20T03:23:18.548Z,8.53
2023-05-20T03:26:06.873Z,7.87
2023-05-20T03:28:52.675Z,9.87
2023-05-20T03:31:38.575Z,10.80
2023-05-20T03:34:24.305Z,8.60
2023-05-20T03:37:10.688Z,11.20
2023-05-20T03:39:56.490Z,15.10
2023-05-20T03:42:43.414Z,11.70
2023-05-20T03:45:29.091Z,12.43
2023-05-20T03:48:22.207Z,9.55
2023-05-20T03:51:08.683Z,10.93
2023-05-20T03:53:54.505Z,10.47
2023-05-20T03:56:41.116Z,10.60
2023-05-20T03:59:27.517Z,10.93
2023-05-20T04:02:14.797Z,7.57
2023-05-20T04:05:01.644Z,10.57
2023-05-20T04:07:48.767Z,12.63
2023-05-20T04:10:35.089Z,8.67
2023-05-20T04:13:22.095Z,6.53
2023-05-20T04:16:07.872Z,8.00
2023-05-20T04:18:53.452Z,6.97
2023-05-20T04:21:39.498Z,6.73
2023-05-20T04:24:27.423Z,6.70
2023-05-20T04:27:16.696Z,7.30
2023-05-20T04:30:02.475Z,6.67
2023-05-20T04:32:52.419Z,5.80
2023-05-20T04:35:42.680Z,7.63
2023-05-20T04:38:32.595Z,5.63
2023-05-20T04:41:19.964Z,7.77
2023-05-20T04:44:06.445Z,7.60
2023-05-20T04:46:52.520Z,7.43
2023-05-20T04:49:38.918Z,7.17
2023-05-20T04:52:30.608Z,6.10
2023-05-20T04:55:16.140Z,6.27
2023-05-20T04:58:02.120Z,7.33
2023-05-20T05:00:47.879Z,5.57
2023-05-20T05:03:36.568Z,8.07
2023-05-20T05:06:22.510Z,6.93
2023-05-20T05:09:08.217Z,7.73
2023-05-20T05:11:56.540Z,7.13
2023-05-20T05:14:41.970Z,7.03
2023-05-20T05:17:28.858Z,6.23
2023-05-20T05:20:16.431Z,6.87
2023-05-20T05:23:02.349Z,9.00
2023-05-20T05:25:52.189Z,5.93
2023-05-20T05:28:37.423Z,6.33
2023-05-20T05:31:22.955Z,7.40
2023-05-20T05:34:08.918Z,8.00
2023-05-20T05:36:54.443Z,7.97
2023-05-20T05:39:39.860Z,7.47
2023-05-20T05:42:25.944Z,7.17
2023-05-20T05:45:12.280Z,11.57
2023-05-20T05:47:58.347Z,10.77
2023-05-20T05:50:46.555Z,13.03
2023-05-20T05:53:34.238Z,7.40
2023-05-20T05:56:19.702Z,8.30
2023-05-20T05:59:06.082Z,8.73
2023-05-20T06:01:51.595Z,12.17
2023-05-20T06:04:37.187Z,9.57
2023-05-20T06:07:23.812Z,12.73
2023-05-20T06:10:10.853Z,9.77
2023-05-20T06:12:56.354Z,12.67
2023-05-20T06:15:42.505Z,11.77
2023-05-20T06:18:27.802Z,9.90
2023-05-20T06:21:41.629Z,17.03
2023-05-20T06:24:40.838Z,13.77
2023-05-20T06:27:27.728Z,11.63
2023-05-20T06:30:13.279Z,15.33
2023-05-20T06:32:58.553Z,14.93
2023-05-20T06:35:44.860Z,15.97
2023-05-20T06:39:12.805Z,17.53
2023-05-20T06:42:03.210Z,19.53
2023-05-20T06:44:53.361Z,18.07
2023-05-20T06:47:50.121Z,16.40
2023-05-20T06:50:35.779Z,15.40
2023-05-20T06:53:22.170Z,14.20
2023-05-20T06:56:07.782Z,15.03
2023-05-20T06:58:53.367Z,12.80
2023-05-20T07:01:39.599Z,13.53
2023-05-20T07:04:25.417Z,14.27
2023-05-20T07:07:12.517Z,14.47
2023-05-20T07:09:58.191Z,11.97
2023-05-20T07:12:44.379Z,15.17
2023-05-20T07:15:30.031Z,14.63
2023-05-20T07:18:16.473Z,15.37
2023-05-20T07:21:07.713Z,13.07
2023-05-20T07:24:11.970Z,13.17
2023-05-20T07:26:57.430Z,13.80
2023-05-20T07:29:43.428Z,13.13
2023-05-20T07:32:29.299Z,13.30
2023-05-20T07:35:14.878Z,11.33
2023-05-20T07:38:01.273Z,11.03
2023-05-20T07:40:46.770Z,10.27
2023-05-20T07:43:33.128Z,10.20
2023-05-20T07:46:20.558Z,12.67
2023-05-20T07:49:06.185Z,12.13
2023-05-20T07:51:53.211Z,12.23
2023-05-20T07:54:38.579Z,9.53
2023-05-20T07:57:24.095Z,11.13
2023-05-20T08:00:11.959Z,10.73
2023-05-20T08:03:02.902Z,11.77
2023-05-20T08:06:04.310Z,10.50
2023-05-20T08:08:50.254Z,10.50
2023-05-20T08:11:42.414Z,10.37
2023-05-20T08:14:28.136Z,11.53
2023-05-20T08:17:13.701Z,11.47
2023-05-20T08:19:59.467Z,9.57
2023-05-20T08:22:44.774Z,9.80
2023-05-20T08:25:31.318Z,11.43
2023-05-20T08:28:18.264Z,9.90
2023-05-20T08:31:05.145Z,9.37
2023-05-20T08:33:51.513Z,10.03
2023-05-20T08:36:36.916Z,11.77
2023-05-20T08:39:23.402Z,11.30
2023-05-20T08:42:11.758Z,10.67
2023-05-20T08:44:59.386Z,9.97
2023-05-20T08:47:48.170Z,8.93
2023-05-20T08:50:33.928Z,8.87
2023-05-20T08:53:30.050Z,12.47
2023-05-20T08:56:17.109Z,9.57
2023-05-20T08:59:04.292Z,15.07
2023-05-20T09:01:50.348Z,11.50
2023-05-20T09:04:38.176Z,13.43
2023-05-20T09:07:29.075Z,9.83
2023-05-20T09:10:15.236Z,11.57
2023-05-20T09:13:02.821Z,11.03
2023-05-20T09:15:48.760Z,15.90
2023-05-20T09:18:34.582Z,13.33
2023-05-20T09:21:27.054Z,12.50
2023-05-20T09:24:12.267Z,12.27
2023-05-20T09:26:58.697Z,11.87
2023-05-20T09:29:44.270Z,14.90
2023-05-20T09:32:30.355Z,14.97
2023-05-20T09:35:16.333Z,10.30
2023-05-20T09:38:05.100Z,9.97
2023-05-20T09:40:51.214Z,12.60
2023-05-20T09:43:37.474Z,14.13
2023-05-20T09:46:23.200Z,16.10
2023-05-20T09:49:11.211Z,15.67
2023-05-20T09:51:59.784Z,14.23
2023-05-20T09:54:45.464Z,13.43
2023-05-20T09:57:31.974Z,13.73
2023-05-20T10:00:17.952Z,13.63
2023-05-20T10:03:04.515Z,11.97
2023-05-20T10:06:21.590Z,12.37
2023-05-20T10:09:28.800Z,10.97
2023-05-20T10:12:46.579Z,11.57
2023-05-20T10:15:44.427Z,15.63
2023-05-20T10:19:05.649Z,13.37
2023-05-20T10:21:59.039Z,16.17
2023-05-20T10:27:30.103Z,14.03
2023-05-20T10:30:20.089Z,16.10
2023-05-20T10:33:07.184Z,12.70
2023-05-20T10:35:53.860Z,13.87
2023-05-20T10:38:49.301Z,11.77
2023-05-20T10:41:34.852Z,15.63
2023-05-20T10:44:20.207Z,14.73
2023-05-20T10:49:53.808Z,13.97
2023-05-20T10:52:51.248Z,16.10
2023-05-20T10:55:38.703Z,13.03
2023-05-20T10:58:24.813Z,15.13
2023-05-20T11:01:11.087Z,13.43
2023-05-20T11:03:57.857Z,16.47
2023-05-20T11:06:54.832Z,13.37
2023-05-20T11:09:49.897Z,12.33
2023-05-20T11:12:35.561Z,12.97
2023-05-20T11:15:24.922Z,11.80
2023-05-20T11:18:12.479Z,12.60
2023-05-20T11:20:59.264Z,14.13
2023-05-20T11:23:44.552Z,11.57
2023-05-20T11:26:29.835Z,12.17
2023-05-20T11:29:15.187Z,14.60
2023-05-20T11:32:01.490Z,10.53
2023-05-20T11:34:52.245Z,12.17
2023-05-20T11:37:37.663Z,11.53
2023-05-20T11:40:32.879Z,13.07
2023-05-20T11:43:25.095Z,13.57
2023-05-20T11:46:11.797Z,14.47
2023-05-20T11:48:58.081Z,14.33
2023-05-20T11:51:45.074Z,16.53
2023-05-20T11:54:30.277Z,17.03
2023-05-20T11:57:15.711Z,13.03
2023-05-20T12:00:01.210Z,13.73
2023-05-20T12:02:47.482Z,14.47
2023-05-20T12:05:33.042Z,13.23
2023-05-20T12:08:18.370Z,14.13
2023-05-20T12:11:03.995Z,12.93
2023-05-20T12:13:49.656Z,14.63
2023-05-20T12:16:36.634Z,12.50
2023-05-20T12:19:22.156Z,14.43
2023-05-20T12:22:07.294Z,12.37
2023-05-20T12:24:54.188Z,13.33
2023-05-20T12:27:40.640Z,11.10
2023-05-20T12:30:26.094Z,14.07
2023-05-20T12:33:11.321Z,11.10
2023-05-20T12:35:56.579Z,11.10
2023-05-20T12:38:42.111Z,12.20
2023-05-20T12:41:27.618Z,13.13
2023-05-20T12:44:12.926Z,11.87
2023-05-20T12:46:58.561Z,13.13
2023-05-20T12:49:44.348Z,14.10
2023-05-20T12:52:30.154Z,11.30
2023-05-20T12:55:15.673Z,11.60
2023-05-20T12:58:01.020Z,12.17
2023-05-20T13:00:46.769Z,11.87
2023-05-20T13:03:31.969Z,14.10
2023-05-20T13:06:17.766Z,12.80
2023-05-20T13:09:03.393Z,13.47
2023-05-20T13:11:49.322Z,12.17
2023-05-20T13:14:34.823Z,12.10
2023-05-20T13:17:20.104Z,10.93
2023-05-20T13:20:07.404Z,14.10
2023-05-20T13:22:53.277Z,13.40
2023-05-20T13:25:38.774Z,13.87
2023-05-20T13:28:23.987Z,15.37
2023-05-20T13:31:09.643Z,13.60
2023-05-20T13:33:55.294Z,12.93
2023-05-20T13:36:40.596Z,13.53
2023-05-20T13:39:25.954Z,16.00
2023-05-20T13:42:11.381Z,15.57
2023-05-20T13:44:56.563Z,14.83
2023-05-20T13:47:41.975Z,13.90
2023-05-20T13:50:27.656Z,14.27
2023-05-20T13:53:13.920Z,12.87
2023-05-20T13:56:00.081Z,13.87
2023-05-20T13:58:45.907Z,12.37
2023-05-20T14:01:33.424Z,12.73
2023-05-20T14:04:19.009Z,12.70
2023-05-20T14:07:07.693Z,11.60
2023-05-20T14:09:54.706Z,14.33
2023-05-20T14:12:41.231Z,14.77
2023-05-20T14:15:30.537Z,17.00
2023-05-20T14:18:17.032Z,14.90
2023-05-20T14:21:02.419Z,11.77
2023-05-20T14:23:47.809Z,12.97
2023-05-20T14:26:34.125Z,12.37
2023-05-20T14:29:19.674Z,11.20
2023-05-20T14:32:05.928Z,20.40
2023-05-20T14:34:53.712Z,15.17
2023-05-20T14:37:39.034Z,13.40
2023-05-20T14:40:24.634Z,17.63
2023-05-20T14:43:10.283Z,21.40
2023-05-20T14:45:55.972Z,18.50
2023-05-20T14:48:41.453Z,25.13
2023-05-20T14:51:26.883Z,23.07
2023-05-20T14:54:12.302Z,20.50
2023-05-20T14:56:57.583Z,20.30
2023-05-20T14:59:43.262Z,22.10
2023-05-20T15:02:28.455Z,23.67
2023-05-20T15:05:14.643Z,23.17
2023-05-20T15:08:00.291Z,21.33
2023-05-20T15:10:46.147Z,23.93
2023-05-20T15:13:31.811Z,25.17
2023-05-20T15:16:19.359Z,26.43
2023-05-20T15:19:05.218Z,24.63
2023-05-20T15:21:51.851Z,19.97
2023-05-20T15:24:37.355Z,21.90
2023-05-20T15:27:22.665Z,22.77
2023-05-20T15:30:09.002Z,21.70
2023-05-20T15:32:54.478Z,21.77
2023-05-20T15:35:40.335Z,20.77
2023-05-20T15:38:25.620Z,21.17
2023-05-20T15:41:13.518Z,23.30
2023-05-20T15:43:58.736Z,20.83
2023-05-20T15:46:44.968Z,19.33
2023-05-20T15:49:30.447Z,22.50
2023-05-20T15:52:15.731Z,20.57
2023-05-20T15:55:00.964Z,24.53
2023-05-20T15:57:46.249Z,17.53
2023-05-20T16:00:31.447Z,19.93
2023-05-20T16:03:16.995Z,16.57
2023-05-20T16:06:02.688Z,17.67
2023-05-20T16:08:48.078Z,16.93
2023-05-20T16:11:33.679Z,17.90
2023-05-20T16:14:19.188Z,19.27
2023-05-20T16:17:04.721Z,19.30
2023-05-20T16:19:50.309Z,16.43
2023-05-20T16:22:36.024Z,19.67
2023-05-20T16:25:21.686Z,18.77
2023-05-20T16:28:06.981Z,19.07
2023-05-20T16:30:53.347Z,17.40
2023-05-20T16:33:38.690Z,16.90
2023-05-20T16:36:24.013Z,17.27
2023-05-20T16:39:10.125Z,19.27
2023-05-20T16:41:55.656Z,17.70
2023-05-20T16:44:41.583Z,20.60
2023-05-20T16:47:27.160Z,19.37
2023-05-20T16:50:12.671Z,22.17
2023-05-20T16:52:59.812Z,21.90
2023-05-20T16:55:46.009Z,21.67
2023-05-20T16:58:31.497Z,25.70
2023-05-20T17:01:16.770Z,21.17
2023-05-20T17:04:02.258Z,25.57
2023-05-20T17:06:49.924Z,26.57
2023-05-20T17:09:36.868Z,24.57
2023-05-20T17:12:22.478Z,28.37
2023-05-20T17:15:08.670Z,30.50
2023-05-20T17:17:54.197Z,35.50
2023-05-20T17:20:39.628Z,33.00
2023-05-20T17:23:25.504Z,35.17
2023-05-20T17:26:11.102Z,30.67
2023-05-20T17:28:56.453Z,31.07
2023-05-20T17:31:41.611Z,29.43
2023-05-20T17:34:26.971Z,36.23
2023-05-20T17:37:12.366Z,30.37
2023-05-20T17:39:57.789Z,30.37
2023-05-20T17:42:43.199Z,27.10
2023-05-20T17:45:28.541Z,26.73
2023-05-20T17:48:14.452Z,25.40
2023-05-20T17:50:59.575Z,24.67
2023-05-20T17:53:45.155Z,27.43
2023-05-20T17:56:31.368Z,30.47
2023-05-20T17:59:17.585Z,27.07
2023-05-20T18:02:06.547Z,25.10
2023-05-20T18:04:52.527Z,32.80
2023-05-20T18:07:37.699Z,35.60
2023-05-20T18:10:23.592Z,26.23
2023-05-20T18:13:08.803Z,22.97
2023-05-20T18:15:54.245Z,24.30
2023-05-20T18:18:40.136Z,26.23
2023-05-20T18:21:26.394Z,27.30
2023-05-20T18:24:12.131Z,23.50
2023-05-20T18:26:58.005Z,23.03
2023-05-20T18:29:43.490Z,22.50
2023-05-20T18:32:28.735Z,20.53
2023-05-20T18:35:14.784Z,20.10
2023-05-20T18:38:00.770Z,23.93
2023-05-20T18:40:46.989Z,23.80
2023-05-20T18:43:32.204Z,22.30
2023-05-20T18:46:18.710Z,23.90
2023-05-20T18:49:04.761Z,19.33
2023-05-20T18:51:50.616Z,21.43
2023-05-20T18:54:36.995Z,20.23
2023-05-20T18:57:22.841Z,19.93
2023-05-20T19:00:12.656Z,18.70
2023-05-20T19:02:58.740Z,21.47
2023-05-20T19:05:44.143Z,18.47
2023-05-20T19:08:29.395Z,18.27
2023-05-20T19:11:14.976Z,24.50
2023-05-20T19:14:00.899Z,19.33
2023-05-20T19:16:46.484Z,22.97
2023-05-20T19:19:31.804Z,18.50
2023-05-20T19:22:17.102Z,18.33
2023-05-20T19:25:02.578Z,18.00
2023-05-20T19:27:47.738Z,22.67
2023-05-20T19:30:33.169Z,21.50
2023-05-20T19:33:18.563Z,22.47
2023-05-20T19:36:04.256Z,18.03
2023-05-20T19:38:50.108Z,20.10
2023-05-20T19:41:35.552Z,18.47
2023-05-20T19:44:22.961Z,20.03
2023-05-20T19:47:08.495Z,17.07
2023-05-20T19:49:54.269Z,17.17
2023-05-20T19:52:39.709Z,19.40
2023-05-20T19:55:24.988Z,16.93
2023-05-20T19:58:10.811Z,19.53
2023-05-20T20:00:56.258Z,17.60
2023-05-20T20:03:41.987Z,20.43
2023-05-20T20:06:27.388Z,16.30
2023-05-20T20:09:12.581Z,17.03
2023-05-20T20:11:58.007Z,18.40
2023-05-20T20:14:43.280Z,17.90
2023-05-20T20:17:30.317Z,16.93
2023-05-20T20:20:16.810Z,16.73
2023-05-20T20:23:02.260Z,16.50
2023-05-20T20:25:48.275Z,17.10
2023-05-20T20:28:33.894Z,18.30
2023-05-20T20:31:19.627Z,19.03
2023-05-20T20:34:05.855Z,17.07
2023-05-20T20:36:51.414Z,16.60
2023-05-20T20:39:37.289Z,16.40
2023-05-20T20:42:23.119Z,16.07
2023-05-20T20:45:08.978Z,17.43
2023-05-20T20:47:58.008Z,18.27
2023-05-20T20:50:45.905Z,15.67
2023-05-20T20:53:31.110Z,17.07
2023-05-20T20:56:17.454Z,15.30
2023-05-20T20:59:04.066Z,16.43
2023-05-20T21:01:54.323Z,15.90
2023-05-20T21:04:42.525Z,15.63
2023-05-20T21:07:30.188Z,15.10
2023-05-20T21:10:17.565Z,16.10
2023-05-20T21:13:02.650Z,16.20
2023-05-20T21:15:48.161Z,17.00
2023-05-20T21:18:33.442Z,15.80
2023-05-20T21:21:21.526Z,16.20
2023-05-20T21:24:07.231Z,16.20
2023-05-20T21:26:52.332Z,17.10
2023-05-20T21:29:39.681Z,17.13
2023-05-20T21:32:26.037Z,16.23
2023-05-20T21:35:11.275Z,16.23
2023-05-20T21:37:56.824Z,18.97
2023-05-20T21:40:42.125Z,14.93
2023-05-20T21:43:27.872Z,16.43
2023-05-20T21:46:13.688Z,16.87
2023-05-20T21:48:58.985Z,16.60
2023-05-20T21:51:44.270Z,19.23
2023-05-20T21:54:29.279Z,17.10
2023-05-20T21:57:14.665Z,15.00
2023-05-20T22:00:00.221Z,17.23
2023-05-20T22:02:46.260Z,15.47
2023-05-20T22:05:34.712Z,15.77
2023-05-20T22:08:20.325Z,15.80
2023-05-20T22:11:05.549Z,15.40
2023-05-20T22:13:51.334Z,15.90
2023-05-20T22:16:36.635Z,15.27
2023-05-20T22:19:22.360Z,15.10
2023-05-20T22:22:07.747Z,14.97
2023-05-20T22:24:53.036Z,14.47
2023-05-20T22:27:38.802Z,14.57
2023-05-20T22:30:24.381Z,15.27
2023-05-20T22:33:09.863Z,15.13
2023-05-20T22:35:55.045Z,15.70
2023-05-20T22:38:40.074Z,15.90
2023-05-20T22:41:26.420Z,15.70
2023-05-20T22:44:11.667Z,15.80
2023-05-20T22:46:56.955Z,14.93
2023-05-20T22:49:42.305Z,14.50
2023-05-20T22:52:27.814Z,16.03
2023-05-20T22:55:13.483Z,14.80
2023-05-20T22:57:58.806Z,14.87
2023-05-20T23:00:44.579Z,15.20
2023-05-20T23:03:29.980Z,14.30
2023-05-20T23:06:15.422Z,14.40
2023-05-20T23:09:01.064Z,14.70
2023-05-20T23:11:46.222Z,15.63
2023-05-20T23:14:31.883Z,16.60
2023-05-20T23:17:17.360Z,15.50
2023-05-20T23:20:10.885Z,14.80
2023-05-20T23:22:56.579Z,14.88
2023-05-20T23:25:44.257Z,14.67
2023-05-20T23:28:30.860Z,15.03
2023-05-20T23:31:16.300Z,16.07
2023-05-20T23:34:03.703Z,13.73
2023-05-20T23:36:50.064Z,14.67
2023-05-20T23:39:35.492Z,14.83
2023-05-20T23:42:21.040Z,17.77
2023-05-20T23:45:06.669Z,14.63
2023-05-20T23:47:52.347Z,14.60
2023-05-20T23:50:37.641Z,15.17
2023-05-20T23:53:23.105Z,14.27
2023-05-20T23:56:09.321Z,14.80
2023-05-20T23:58:54.804Z,14.00
